Buckland, Massachusetts
Current Conditions -  °F | °C
As of 2:52 AM on Friday 24 Oct 2014 (Local Time) from KAQW Reporting Station
Overcast Overcast  
Wind Chill: 40°   Ceiling: 700
Heat Index: 44°   Visibility: 10mi
Dew Point: 42°   Wind: 8mph
Humidity: 93%   Direction: 280°W
Pressure: 29.79"   Gusts: NA
Location:  42.59°N, 72.79°W
Report Text: KAQW 240652Z AUTO 28007KT 10SM OVC007 07/06 A2979 RMK AO2 RAE36 CIG 005V011 SLP093 P0001 T00670056
Loading
Personal Weather Stations






























Interactive Weather Map
Tropical Storm Tracking
New forecast layout! Learn more

10-Day Weather Forecast

Advertisements
Track Severe Weather on mobile